sensor_id;sensor_type;location;lat;lon;timestamp;temperature;humidity
45060;DHT22;30799;49.060;9.312;2022-09-27T00:00:06;21.00;64.00
45060;DHT22;30799;49.060;9.312;2022-09-27T00:02:33;20.90;63.90
45060;DHT22;30799;49.060;9.312;2022-09-27T00:05:00;20.90;64.00
45060;DHT22;30799;49.060;9.312;2022-09-27T00:07:27;20.90;63.90
45060;DHT22;30799;49.060;9.312;2022-09-27T00:09:53;20.90;63.90
45060;DHT22;30799;49.060;9.312;2022-09-27T00:12:20;21.00;64.00
45060;DHT22;30799;49.060;9.312;2022-09-27T00:14:46;20.90;63.90
45060;DHT22;30799;49.060;9.312;2022-09-27T00:17:13;21.00;64.00
45060;DHT22;30799;49.060;9.312;2022-09-27T00:19:39;21.00;64.00
45060;DHT22;30799;49.060;9.312;2022-09-27T00:22:06;20.90;63.90
45060;DHT22;30799;49.060;9.312;2022-09-27T00:24:33;21.00;64.10
45060;DHT22;30799;49.060;9.312;2022-09-27T00:26:59;20.90;64.00
45060;DHT22;30799;49.060;9.312;2022-09-27T00:29:26;20.90;64.00
45060;DHT22;30799;49.060;9.312;2022-09-27T00:31:53;20.90;64.00
45060;DHT22;30799;49.060;9.312;2022-09-27T00:34:22;20.90;64.00
45060;DHT22;30799;49.060;9.312;2022-09-27T00:36:50;20.90;64.00
45060;DHT22;30799;49.060;9.312;2022-09-27T00:39:17;20.90;64.00
45060;DHT22;30799;49.060;9.312;2022-09-27T00:41:44;20.90;64.00
45060;DHT22;30799;49.060;9.312;2022-09-27T00:47:22;20.90;64.10
45060;DHT22;30799;49.060;9.312;2022-09-27T00:49:54;21.00;64.10
45060;DHT22;30799;49.060;9.312;2022-09-27T00:52:29;20.90;64.00
45060;DHT22;30799;49.060;9.312;2022-09-27T00:55:03;20.90;64.10
45060;DHT22;30799;49.060;9.312;2022-09-27T00:57:32;20.90;64.00
45060;DHT22;30799;49.060;9.312;2022-09-27T01:00:04;20.90;64.10
45060;DHT22;30799;49.060;9.312;2022-09-27T01:02:32;21.00;64.10
45060;DHT22;30799;49.060;9.312;2022-09-27T01:05:00;20.90;64.10
45060;DHT22;30799;49.060;9.312;2022-09-27T01:07:26;20.90;64.10
45060;DHT22;30799;49.060;9.312;2022-09-27T01:09:53;20.90;64.10
45060;DHT22;30799;49.060;9.312;2022-09-27T01:12:44;20.90;64.10
45060;DHT22;30799;49.060;9.312;2022-09-27T01:15:51;20.90;64.10
45060;DHT22;30799;49.060;9.312;2022-09-27T01:18:37;20.90;64.10
45060;DHT22;30799;49.060;9.312;2022-09-27T01:21:13;20.90;64.10
45060;DHT22;30799;49.060;9.312;2022-09-27T01:32:23;20.90;64.10
45060;DHT22;30799;49.060;9.312;2022-09-27T01:43:56;20.90;64.10
45060;DHT22;30799;49.060;9.312;2022-09-27T01:46:33;20.90;64.20
45060;DHT22;30799;49.060;9.312;2022-09-27T01:49:07;20.90;64.20
45060;DHT22;30799;49.060;9.312;2022-09-27T01:51:42;20.90;64.20
45060;DHT22;30799;49.060;9.312;2022-09-27T01:54:13;20.90;64.10
45060;DHT22;30799;49.060;9.312;2022-09-27T01:56:46;20.90;64.10
45060;DHT22;30799;49.060;9.312;2022-09-27T01:59:23;20.90;64.10
45060;DHT22;30799;49.060;9.312;2022-09-27T02:01:57;20.90;64.20
45060;DHT22;30799;49.060;9.312;2022-09-27T02:04:29;20.90;64.20
45060;DHT22;30799;49.060;9.312;2022-09-27T02:07:03;20.90;64.20
45060;DHT22;30799;49.060;9.312;2022-09-27T02:09:36;20.90;64.20
45060;DHT22;30799;49.060;9.312;2022-09-27T02:12:07;20.90;64.20
45060;DHT22;30799;49.060;9.312;2022-09-27T02:14:47;20.90;64.20
45060;DHT22;30799;49.060;9.312;2022-09-27T02:20:07;20.90;64.10
45060;DHT22;30799;49.060;9.312;2022-09-27T02:30:15;20.90;64.10
45060;DHT22;30799;49.060;9.312;2022-09-27T02:32:42;20.90;64.10
45060;DHT22;30799;49.060;9.312;2022-09-27T02:35:14;20.90;64.10
45060;DHT22;30799;49.060;9.312;2022-09-27T02:37:43;20.90;64.20
45060;DHT22;30799;49.060;9.312;2022-09-27T02:40:10;20.90;64.10
45060;DHT22;30799;49.060;9.312;2022-09-27T02:42:37;20.90;64.20
45060;DHT22;30799;49.060;9.312;2022-09-27T02:45:04;20.90;64.10
45060;DHT22;30799;49.060;9.312;2022-09-27T02:50:28;20.90;64.10
45060;DHT22;30799;49.060;9.312;2022-09-27T02:53:06;20.90;64.90
45060;DHT22;30799;49.060;9.312;2022-09-27T03:04:11;20.80;64.10
45060;DHT22;30799;49.060;9.312;2022-09-27T03:06:42;20.90;64.20
45060;DHT22;30799;49.060;9.312;2022-09-27T03:09:21;20.90;64.20
45060;DHT22;30799;49.060;9.312;2022-09-27T03:11:48;20.90;64.10
45060;DHT22;30799;49.060;9.312;2022-09-27T03:14:15;20.90;64.10
45060;DHT22;30799;49.060;9.312;2022-09-27T03:16:42;20.90;64.10
45060;DHT22;30799;49.060;9.312;2022-09-27T03:19:09;21.00;64.20
45060;DHT22;30799;49.060;9.312;2022-09-27T03:21:35;20.90;64.20
45060;DHT22;30799;49.060;9.312;2022-09-27T03:24:02;20.90;64.20
45060;DHT22;30799;49.060;9.312;2022-09-27T03:26:29;20.90;64.20
45060;DHT22;30799;49.060;9.312;2022-09-27T03:28:56;20.90;64.10
45060;DHT22;30799;49.060;9.312;2022-09-27T03:31:22;20.90;64.10
45060;DHT22;30799;49.060;9.312;2022-09-27T03:33:49;20.90;64.10
45060;DHT22;30799;49.060;9.312;2022-09-27T03:36:16;20.80;64.00
45060;DHT22;30799;49.060;9.312;2022-09-27T03:38:42;20.90;64.10
45060;DHT22;30799;49.060;9.312;2022-09-27T03:41:09;20.90;64.10
45060;DHT22;30799;49.060;9.312;2022-09-27T03:43:35;20.80;64.00
45060;DHT22;30799;49.060;9.312;2022-09-27T03:46:02;20.80;64.10
45060;DHT22;30799;49.060;9.312;2022-09-27T03:48:29;20.90;64.10
45060;DHT22;30799;49.060;9.312;2022-09-27T03:50:56;20.80;64.00
45060;DHT22;30799;49.060;9.312;2022-09-27T03:53:23;20.80;64.00
45060;DHT22;30799;49.060;9.312;2022-09-27T03:55:50;20.80;64.00
45060;DHT22;30799;49.060;9.312;2022-09-27T03:58:16;20.80;64.00
45060;DHT22;30799;49.060;9.312;2022-09-27T04:00:45;20.90;64.20
45060;DHT22;30799;49.060;9.312;2022-09-27T04:03:12;20.90;64.40
45060;DHT22;30799;49.060;9.312;2022-09-27T04:05:39;20.90;66.00
45060;DHT22;30799;49.060;9.312;2022-09-27T04:08:05;20.90;66.30
45060;DHT22;30799;49.060;9.312;2022-09-27T04:10:33;20.90;66.80
45060;DHT22;30799;49.060;9.312;2022-09-27T04:13:00;20.90;67.30
45060;DHT22;30799;49.060;9.312;2022-09-27T04:15:26;20.90;67.20
45060;DHT22;30799;49.060;9.312;2022-09-27T04:17:53;20.90;67.20
45060;DHT22;30799;49.060;9.312;2022-09-27T04:20:20;20.90;67.60
45060;DHT22;30799;49.060;9.312;2022-09-27T04:22:46;20.90;67.50
45060;DHT22;30799;49.060;9.312;2022-09-27T04:25:13;20.90;67.50
45060;DHT22;30799;49.060;9.312;2022-09-27T04:27:44;20.90;67.30
45060;DHT22;30799;49.060;9.312;2022-09-27T04:30:14;20.90;67.20
45060;DHT22;30799;49.060;9.312;2022-09-27T04:32:42;20.90;67.10
45060;DHT22;30799;49.060;9.312;2022-09-27T04:35:10;20.90;66.90
45060;DHT22;30799;49.060;9.312;2022-09-27T04:37:56;21.00;66.70
45060;DHT22;30799;49.060;9.312;2022-09-27T04:40:23;21.00;66.20
45060;DHT22;30799;49.060;9.312;2022-09-27T04:42:50;21.00;66.00
45060;DHT22;30799;49.060;9.312;2022-09-27T04:45:17;21.10;66.30
45060;DHT22;30799;49.060;9.312;2022-09-27T04:47:48;21.00;67.10
45060;DHT22;30799;49.060;9.312;2022-09-27T04:50:16;21.00;67.80
45060;DHT22;30799;49.060;9.312;2022-09-27T04:52:43;21.00;68.50
45060;DHT22;30799;49.060;9.312;2022-09-27T04:55:10;20.90;68.80
45060;DHT22;30799;49.060;9.312;2022-09-27T04:57:37;20.90;68.20
45060;DHT22;30799;49.060;9.312;2022-09-27T05:00:04;20.90;68.50
45060;DHT22;30799;49.060;9.312;2022-09-27T05:02:30;20.90;67.80
45060;DHT22;30799;49.060;9.312;2022-09-27T05:04:57;20.90;68.30
45060;DHT22;30799;49.060;9.312;2022-09-27T05:07:26;20.90;68.00
45060;DHT22;30799;49.060;9.312;2022-09-27T05:09:54;20.90;68.00
45060;DHT22;30799;49.060;9.312;2022-09-27T05:12:21;20.90;67.90
45060;DHT22;30799;49.060;9.312;2022-09-27T05:14:48;20.90;67.90
45060;DHT22;30799;49.060;9.312;2022-09-27T05:17:14;20.90;67.60
45060;DHT22;30799;49.060;9.312;2022-09-27T05:19:41;20.90;67.90
45060;DHT22;30799;49.060;9.312;2022-09-27T05:22:08;20.90;67.70
45060;DHT22;30799;49.060;9.312;2022-09-27T05:24:35;20.90;67.60
45060;DHT22;30799;49.060;9.312;2022-09-27T05:27:04;20.90;67.70
45060;DHT22;30799;49.060;9.312;2022-09-27T05:29:34;20.90;67.30
45060;DHT22;30799;49.060;9.312;2022-09-27T05:32:01;20.90;67.30
45060;DHT22;30799;49.060;9.312;2022-09-27T05:34:27;20.90;67.40
45060;DHT22;30799;49.060;9.312;2022-09-27T05:36:54;20.80;67.10
45060;DHT22;30799;49.060;9.312;2022-09-27T05:39:21;20.90;67.30
45060;DHT22;30799;49.060;9.312;2022-09-27T05:41:47;20.90;67.20
45060;DHT22;30799;49.060;9.312;2022-09-27T05:44:16;20.80;67.10
45060;DHT22;30799;49.060;9.312;2022-09-27T05:46:43;20.80;67.10
45060;DHT22;30799;49.060;9.312;2022-09-27T05:49:11;20.80;67.20
45060;DHT22;30799;49.060;9.312;2022-09-27T05:51:38;20.80;66.90
45060;DHT22;30799;49.060;9.312;2022-09-27T05:54:05;20.80;66.90
45060;DHT22;30799;49.060;9.312;2022-09-27T05:56:31;20.80;67.00
45060;DHT22;30799;49.060;9.312;2022-09-27T05:58:58;20.80;67.00
45060;DHT22;30799;49.060;9.312;2022-09-27T06:01:25;20.80;66.80
45060;DHT22;30799;49.060;9.312;2022-09-27T06:03:53;20.80;66.80
45060;DHT22;30799;49.060;9.312;2022-09-27T06:06:20;20.80;66.80
45060;DHT22;30799;49.060;9.312;2022-09-27T06:08:49;20.80;66.90
45060;DHT22;30799;49.060;9.312;2022-09-27T06:11:15;20.80;66.80
45060;DHT22;30799;49.060;9.312;2022-09-27T06:13:42;20.80;66.60
45060;DHT22;30799;49.060;9.312;2022-09-27T06:16:10;20.80;66.50
45060;DHT22;30799;49.060;9.312;2022-09-27T06:18:37;20.80;66.60
45060;DHT22;30799;49.060;9.312;2022-09-27T06:21:05;20.80;66.60
45060;DHT22;30799;49.060;9.312;2022-09-27T06:23:32;20.80;66.60
45060;DHT22;30799;49.060;9.312;2022-09-27T06:26:04;20.80;66.40
45060;DHT22;30799;49.060;9.312;2022-09-27T06:28:32;20.80;66.50
45060;DHT22;30799;49.060;9.312;2022-09-27T06:31:01;20.80;66.40
45060;DHT22;30799;49.060;9.312;2022-09-27T06:33:27;20.80;66.40
45060;DHT22;30799;49.060;9.312;2022-09-27T06:35:54;20.80;66.40
45060;DHT22;30799;49.060;9.312;2022-09-27T06:38:22;20.80;66.30
45060;DHT22;30799;49.060;9.312;2022-09-27T06:40:50;20.80;66.30
45060;DHT22;30799;49.060;9.312;2022-09-27T06:43:18;20.80;66.40
45060;DHT22;30799;49.060;9.312;2022-09-27T06:45:46;20.80;66.40
45060;DHT22;30799;49.060;9.312;2022-09-27T06:48:14;20.80;66.20
45060;DHT22;30799;49.060;9.312;2022-09-27T06:50:43;20.80;66.10
45060;DHT22;30799;49.060;9.312;2022-09-27T06:53:11;20.80;66.10
45060;DHT22;30799;49.060;9.312;2022-09-27T06:55:39;20.80;66.10
45060;DHT22;30799;49.060;9.312;2022-09-27T06:58:08;20.80;66.00
45060;DHT22;30799;49.060;9.312;2022-09-27T07:00:54;20.80;66.00
45060;DHT22;30799;49.060;9.312;2022-09-27T07:03:22;20.80;66.00
45060;DHT22;30799;49.060;9.312;2022-09-27T07:05:56;20.80;66.00
45060;DHT22;30799;49.060;9.312;2022-09-27T07:08:24;20.80;66.00
45060;DHT22;30799;49.060;9.312;2022-09-27T07:10:55;20.80;66.00
45060;DHT22;30799;49.060;9.312;2022-09-27T07:13:22;20.80;66.00
45060;DHT22;30799;49.060;9.312;2022-09-27T07:15:49;20.80;66.00
45060;DHT22;30799;49.060;9.312;2022-09-27T07:18:15;20.80;66.00
45060;DHT22;30799;49.060;9.312;2022-09-27T07:20:42;20.80;66.00
45060;DHT22;30799;49.060;9.312;2022-09-27T07:23:09;20.80;66.00
45060;DHT22;30799;49.060;9.312;2022-09-27T07:25:36;20.80;66.00
45060;DHT22;30799;49.060;9.312;2022-09-27T07:28:05;20.80;66.00
45060;DHT22;30799;49.060;9.312;2022-09-27T07:30:33;20.80;66.00
45060;DHT22;30799;49.060;9.312;2022-09-27T07:33:02;20.80;66.00
45060;DHT22;30799;49.060;9.312;2022-09-27T07:35:29;20.80;66.00
45060;DHT22;30799;49.060;9.312;2022-09-27T07:37:56;20.80;65.90
45060;DHT22;30799;49.060;9.312;2022-09-27T07:40:25;20.80;65.90
45060;DHT22;30799;49.060;9.312;2022-09-27T07:42:58;20.80;65.90
45060;DHT22;30799;49.060;9.312;2022-09-27T07:45:25;20.80;65.90
45060;DHT22;30799;49.060;9.312;2022-09-27T07:47:52;20.80;65.80
45060;DHT22;30799;49.060;9.312;2022-09-27T07:50:19;20.70;66.50
45060;DHT22;30799;49.060;9.312;2022-09-27T07:52:47;20.80;65.80
45060;DHT22;30799;49.060;9.312;2022-09-27T07:55:17;20.80;65.80
45060;DHT22;30799;49.060;9.312;2022-09-27T07:57:44;20.70;65.70
45060;DHT22;30799;49.060;9.312;2022-09-27T08:00:14;20.80;65.70
45060;DHT22;30799;49.060;9.312;2022-09-27T08:02:41;20.70;65.60
45060;DHT22;30799;49.060;9.312;2022-09-27T08:05:09;20.70;65.50
45060;DHT22;30799;49.060;9.312;2022-09-27T08:07:37;20.70;65.60
45060;DHT22;30799;49.060;9.312;2022-09-27T08:10:06;20.70;65.60
45060;DHT22;30799;49.060;9.312;2022-09-27T08:12:33;20.80;65.70
45060;DHT22;30799;49.060;9.312;2022-09-27T08:15:00;20.80;65.60
45060;DHT22;30799;49.060;9.312;2022-09-27T08:17:28;20.70;65.50
45060;DHT22;30799;49.060;9.312;2022-09-27T08:19:54;20.70;65.50
45060;DHT22;30799;49.060;9.312;2022-09-27T08:22:21;20.70;65.40
45060;DHT22;30799;49.060;9.312;2022-09-27T08:24:48;20.70;65.30
45060;DHT22;30799;49.060;9.312;2022-09-27T08:27:16;20.70;65.30
45060;DHT22;30799;49.060;9.312;2022-09-27T08:29:42;20.70;65.30
45060;DHT22;30799;49.060;9.312;2022-09-27T08:32:12;20.70;65.30
45060;DHT22;30799;49.060;9.312;2022-09-27T08:34:39;20.70;65.20
45060;DHT22;30799;49.060;9.312;2022-09-27T08:37:06;20.70;65.10
45060;DHT22;30799;49.060;9.312;2022-09-27T08:39:33;20.70;65.10
45060;DHT22;30799;49.060;9.312;2022-09-27T08:42:17;20.70;65.10
45060;DHT22;30799;49.060;9.312;2022-09-27T08:44:54;20.70;65.10
45060;DHT22;30799;49.060;9.312;2022-09-27T08:50:17;20.70;65.00
45060;DHT22;30799;49.060;9.312;2022-09-27T08:52:55;20.70;65.00
45060;DHT22;30799;49.060;9.312;2022-09-27T08:58:26;20.70;64.80
45060;DHT22;30799;49.060;9.312;2022-09-27T09:00:58;20.70;64.80
45060;DHT22;30799;49.060;9.312;2022-09-27T09:03:28;20.70;64.70
45060;DHT22;30799;49.060;9.312;2022-09-27T09:27:57;20.70;65.40
45060;DHT22;30799;49.060;9.312;2022-09-27T09:30:40;20.70;64.60
45060;DHT22;30799;49.060;9.312;2022-09-27T09:35:56;20.70;64.50
45060;DHT22;30799;49.060;9.312;2022-09-27T09:38:41;20.70;64.60
45060;DHT22;30799;49.060;9.312;2022-09-27T09:41:29;20.70;64.50
45060;DHT22;30799;49.060;9.312;2022-09-27T09:44:28;20.70;64.50
45060;DHT22;30799;49.060;9.312;2022-09-27T09:46:59;20.70;64.50
45060;DHT22;30799;49.060;9.312;2022-09-27T09:49:46;20.70;64.50
45060;DHT22;30799;49.060;9.312;2022-09-27T09:52:19;20.70;64.50
45060;DHT22;30799;49.060;9.312;2022-09-27T09:55:01;20.70;64.50
45060;DHT22;30799;49.060;9.312;2022-09-27T09:57:41;20.70;64.40
45060;DHT22;30799;49.060;9.312;2022-09-27T10:00:14;20.70;64.40
45060;DHT22;30799;49.060;9.312;2022-09-27T10:02:43;20.70;64.40
45060;DHT22;30799;49.060;9.312;2022-09-27T10:05:20;20.70;64.40
45060;DHT22;30799;49.060;9.312;2022-09-27T10:07:48;20.70;64.30
45060;DHT22;30799;49.060;9.312;2022-09-27T10:10:17;20.70;64.30
45060;DHT22;30799;49.060;9.312;2022-09-27T10:12:45;20.70;64.30
45060;DHT22;30799;49.060;9.312;2022-09-27T10:15:23;20.70;64.30
45060;DHT22;30799;49.060;9.312;2022-09-27T10:17:54;20.70;64.20
45060;DHT22;30799;49.060;9.312;2022-09-27T10:20:48;20.70;64.10
45060;DHT22;30799;49.060;9.312;2022-09-27T10:23:19;20.70;63.90
45060;DHT22;30799;49.060;9.312;2022-09-27T10:26:02;20.70;63.90
45060;DHT22;30799;49.060;9.312;2022-09-27T10:28:40;20.70;63.90
45060;DHT22;30799;49.060;9.312;2022-09-27T10:31:11;20.70;63.90
45060;DHT22;30799;49.060;9.312;2022-09-27T10:33:59;20.70;63.80
45060;DHT22;30799;49.060;9.312;2022-09-27T10:36:30;20.70;63.80
45060;DHT22;30799;49.060;9.312;2022-09-27T10:38:58;20.70;63.80
45060;DHT22;30799;49.060;9.312;2022-09-27T10:44:20;20.70;63.80
45060;DHT22;30799;49.060;9.312;2022-09-27T10:46:51;20.70;63.80
45060;DHT22;30799;49.060;9.312;2022-09-27T10:49:48;20.70;63.80
45060;DHT22;30799;49.060;9.312;2022-09-27T10:52:20;20.70;63.80
45060;DHT22;30799;49.060;9.312;2022-09-27T10:55:07;20.70;63.70
45060;DHT22;30799;49.060;9.312;2022-09-27T10:57:40;20.70;63.70
45060;DHT22;30799;49.060;9.312;2022-09-27T11:00:29;20.70;63.70
45060;DHT22;30799;49.060;9.312;2022-09-27T11:03:06;20.70;63.70
45060;DHT22;30799;49.060;9.312;2022-09-27T11:05:37;20.70;63.60
45060;DHT22;30799;49.060;9.312;2022-09-27T11:08:24;20.70;63.40
45060;DHT22;30799;49.060;9.312;2022-09-27T11:14:01;20.70;63.30
45060;DHT22;30799;49.060;9.312;2022-09-27T11:24:37;20.70;63.40
45060;DHT22;30799;49.060;9.312;2022-09-27T11:27:30;20.70;63.50
45060;DHT22;30799;49.060;9.312;2022-09-27T11:30:13;20.70;63.50
45060;DHT22;30799;49.060;9.312;2022-09-27T11:38:38;20.70;63.40
45060;DHT22;30799;49.060;9.312;2022-09-27T11:41:34;20.70;63.30
45060;DHT22;30799;49.060;9.312;2022-09-27T11:47:22;20.70;63.30
45060;DHT22;30799;49.060;9.312;2022-09-27T11:53:09;20.70;63.10
45060;DHT22;30799;49.060;9.312;2022-09-27T11:55:58;20.70;63.10
45060;DHT22;30799;49.060;9.312;2022-09-27T11:58:38;20.70;63.20
45060;DHT22;30799;49.060;9.312;2022-09-27T12:06:58;20.60;63.20
45060;DHT22;30799;49.060;9.312;2022-09-27T12:09:36;20.70;63.20
45060;DHT22;30799;49.060;9.312;2022-09-27T12:14:42;20.60;63.20
45060;DHT22;30799;49.060;9.312;2022-09-27T12:17:19;20.60;63.10
45060;DHT22;30799;49.060;9.312;2022-09-27T12:19:49;20.60;63.40
45060;DHT22;30799;49.060;9.312;2022-09-27T12:22:24;20.60;63.00
45060;DHT22;30799;49.060;9.312;2022-09-27T12:25:16;20.60;63.10
45060;DHT22;30799;49.060;9.312;2022-09-27T12:28:02;20.70;63.00
45060;DHT22;30799;49.060;9.312;2022-09-27T12:30:33;20.60;63.00
45060;DHT22;30799;49.060;9.312;2022-09-27T12:35:53;20.60;63.10
45060;DHT22;30799;49.060;9.312;2022-09-27T12:39:21;20.60;63.10
45060;DHT22;30799;49.060;9.312;2022-09-27T12:41:32;20.60;63.10
45060;DHT22;30799;49.060;9.312;2022-09-27T12:44:00;20.60;63.10
45060;DHT22;30799;49.060;9.312;2022-09-27T12:49:33;20.60;63.00
45060;DHT22;30799;49.060;9.312;2022-09-27T12:52:07;20.60;63.00
45060;DHT22;30799;49.060;9.312;2022-09-27T12:57:43;20.60;62.90
45060;DHT22;30799;49.060;9.312;2022-09-27T13:00:25;20.60;62.90
45060;DHT22;30799;49.060;9.312;2022-09-27T13:03:19;20.60;62.90
45060;DHT22;30799;49.060;9.312;2022-09-27T13:06:09;20.60;62.90
45060;DHT22;30799;49.060;9.312;2022-09-27T13:14:14;20.60;62.90
45060;DHT22;30799;49.060;9.312;2022-09-27T13:16:43;20.60;62.90
45060;DHT22;30799;49.060;9.312;2022-09-27T13:19:42;20.60;62.90
45060;DHT22;30799;49.060;9.312;2022-09-27T13:22:35;20.60;62.90
45060;DHT22;30799;49.060;9.312;2022-09-27T13:25:02;20.60;62.80
45060;DHT22;30799;49.060;9.312;2022-09-27T13:27:36;20.60;62.80
45060;DHT22;30799;49.060;9.312;2022-09-27T13:33:29;20.60;62.80
45060;DHT22;30799;49.060;9.312;2022-09-27T13:38:33;20.60;62.80
45060;DHT22;30799;49.060;9.312;2022-09-27T13:41:36;20.60;62.80
45060;DHT22;30799;49.060;9.312;2022-09-27T13:49:51;20.60;62.80
45060;DHT22;30799;49.060;9.312;2022-09-27T13:52:31;20.60;62.80
45060;DHT22;30799;49.060;9.312;2022-09-27T13:55:02;20.60;62.80
45060;DHT22;30799;49.060;9.312;2022-09-27T14:00:22;20.60;62.80
45060;DHT22;30799;49.060;9.312;2022-09-27T14:03:00;20.60;62.80
45060;DHT22;30799;49.060;9.312;2022-09-27T14:05:37;20.60;62.70
45060;DHT22;30799;49.060;9.312;2022-09-27T14:08:06;20.60;62.70
45060;DHT22;30799;49.060;9.312;2022-09-27T14:10:42;20.60;62.80
45060;DHT22;30799;49.060;9.312;2022-09-27T14:13:10;20.60;62.80
45060;DHT22;30799;49.060;9.312;2022-09-27T14:15:39;20.60;62.80
45060;DHT22;30799;49.060;9.312;2022-09-27T14:18:10;20.60;62.80
45060;DHT22;30799;49.060;9.312;2022-09-27T14:20:45;20.60;62.80
45060;DHT22;30799;49.060;9.312;2022-09-27T14:23:23;20.60;62.70
45060;DHT22;30799;49.060;9.312;2022-09-27T14:25:53;20.60;62.70
45060;DHT22;30799;49.060;9.312;2022-09-27T14:31:20;20.60;62.70
45060;DHT22;30799;49.060;9.312;2022-09-27T14:33:49;20.60;62.70
45060;DHT22;30799;49.060;9.312;2022-09-27T14:36:29;20.60;62.70
45060;DHT22;30799;49.060;9.312;2022-09-27T14:41:46;20.60;62.70
45060;DHT22;30799;49.060;9.312;2022-09-27T14:44:20;20.60;62.70
45060;DHT22;30799;49.060;9.312;2022-09-27T14:47:24;20.60;62.70
45060;DHT22;30799;49.060;9.312;2022-09-27T14:49:54;20.60;62.70
45060;DHT22;30799;49.060;9.312;2022-09-27T14:52:27;20.60;62.70
45060;DHT22;30799;49.060;9.312;2022-09-27T14:54:58;20.60;62.70
45060;DHT22;30799;49.060;9.312;2022-09-27T14:57:27;20.50;58.60
45060;DHT22;30799;49.060;9.312;2022-09-27T14:59:55;19.40;56.30
45060;DHT22;30799;49.060;9.312;2022-09-27T15:02:24;18.80;56.90
45060;DHT22;30799;49.060;9.312;2022-09-27T15:04:52;19.30;59.40
45060;DHT22;30799;49.060;9.312;2022-09-27T15:07:19;19.70;58.70
45060;DHT22;30799;49.060;9.312;2022-09-27T15:09:48;20.00;59.20
45060;DHT22;30799;49.060;9.312;2022-09-27T15:12:24;20.20;59.40
45060;DHT22;30799;49.060;9.312;2022-09-27T15:14:53;20.30;60.10
45060;DHT22;30799;49.060;9.312;2022-09-27T15:17:21;20.40;60.40
45060;DHT22;30799;49.060;9.312;2022-09-27T15:20:02;20.40;60.60
45060;DHT22;30799;49.060;9.312;2022-09-27T15:22:35;20.50;60.80
45060;DHT22;30799;49.060;9.312;2022-09-27T15:25:17;20.60;60.90
45060;DHT22;30799;49.060;9.312;2022-09-27T15:27:50;20.60;60.90
45060;DHT22;30799;49.060;9.312;2022-09-27T15:30:41;20.70;60.70
45060;DHT22;30799;49.060;9.312;2022-09-27T15:33:19;20.70;60.50
45060;DHT22;30799;49.060;9.312;2022-09-27T15:35:51;20.80;60.50
45060;DHT22;30799;49.060;9.312;2022-09-27T15:38:30;20.80;60.60
45060;DHT22;30799;49.060;9.312;2022-09-27T15:43:56;20.90;60.70
45060;DHT22;30799;49.060;9.312;2022-09-27T15:49:28;20.90;60.80
45060;DHT22;30799;49.060;9.312;2022-09-27T15:51:57;21.00;60.70
45060;DHT22;30799;49.060;9.312;2022-09-27T15:54:26;21.00;60.70
45060;DHT22;30799;49.060;9.312;2022-09-27T15:56:56;21.10;60.90
45060;DHT22;30799;49.060;9.312;2022-09-27T15:59:30;21.10;60.70
45060;DHT22;30799;49.060;9.312;2022-09-27T16:01:59;21.20;61.40
45060;DHT22;30799;49.060;9.312;2022-09-27T16:04:33;21.20;61.30
45060;DHT22;30799;49.060;9.312;2022-09-27T16:07:00;21.20;61.20
45060;DHT22;30799;49.060;9.312;2022-09-27T16:09:27;21.30;61.20
45060;DHT22;30799;49.060;9.312;2022-09-27T16:11:54;21.20;61.30
45060;DHT22;30799;49.060;9.312;2022-09-27T16:14:21;21.30;61.50
45060;DHT22;30799;49.060;9.312;2022-09-27T16:16:55;21.30;61.40
45060;DHT22;30799;49.060;9.312;2022-09-27T16:19:26;21.30;61.40
45060;DHT22;30799;49.060;9.312;2022-09-27T16:21:52;21.30;61.40
45060;DHT22;30799;49.060;9.312;2022-09-27T16:24:19;21.30;61.40
45060;DHT22;30799;49.060;9.312;2022-09-27T16:26:46;21.30;61.50
45060;DHT22;30799;49.060;9.312;2022-09-27T16:29:14;21.40;61.60
45060;DHT22;30799;49.060;9.312;2022-09-27T16:31:41;21.40;61.60
45060;DHT22;30799;49.060;9.312;2022-09-27T16:34:09;21.40;61.40
45060;DHT22;30799;49.060;9.312;2022-09-27T16:36:35;21.40;61.60
45060;DHT22;30799;49.060;9.312;2022-09-27T16:39:03;21.40;61.50
45060;DHT22;30799;49.060;9.312;2022-09-27T16:41:31;21.40;61.60
45060;DHT22;30799;49.060;9.312;2022-09-27T16:44:04;21.40;61.50
45060;DHT22;30799;49.060;9.312;2022-09-27T16:46:31;21.40;61.70
45060;DHT22;30799;49.060;9.312;2022-09-27T16:49:00;21.40;61.70
45060;DHT22;30799;49.060;9.312;2022-09-27T16:51:26;21.40;61.50
45060;DHT22;30799;49.060;9.312;2022-09-27T16:54:12;21.40;61.70
45060;DHT22;30799;49.060;9.312;2022-09-27T16:56:44;21.40;61.50
45060;DHT22;30799;49.060;9.312;2022-09-27T16:59:10;21.40;61.80
45060;DHT22;30799;49.060;9.312;2022-09-27T17:01:37;21.40;61.80
45060;DHT22;30799;49.060;9.312;2022-09-27T17:04:04;21.40;61.90
45060;DHT22;30799;49.060;9.312;2022-09-27T17:06:30;21.40;61.80
45060;DHT22;30799;49.060;9.312;2022-09-27T17:09:01;21.40;61.90
45060;DHT22;30799;49.060;9.312;2022-09-27T17:11:28;21.40;62.10
45060;DHT22;30799;49.060;9.312;2022-09-27T17:13:55;21.40;61.80
45060;DHT22;30799;49.060;9.312;2022-09-27T17:16:22;21.40;61.90
45060;DHT22;30799;49.060;9.312;2022-09-27T17:18:50;21.40;62.10
45060;DHT22;30799;49.060;9.312;2022-09-27T17:21:17;21.50;62.10
45060;DHT22;30799;49.060;9.312;2022-09-27T17:23:44;21.50;61.90
45060;DHT22;30799;49.060;9.312;2022-09-27T17:26:22;21.50;62.00
45060;DHT22;30799;49.060;9.312;2022-09-27T17:28:51;21.50;62.10
45060;DHT22;30799;49.060;9.312;2022-09-27T17:31:22;21.50;60.90
45060;DHT22;30799;49.060;9.312;2022-09-27T17:33:51;20.30;54.80
45060;DHT22;30799;49.060;9.312;2022-09-27T17:36:25;19.60;54.80
45060;DHT22;30799;49.060;9.312;2022-09-27T17:38:52;19.20;55.70
45060;DHT22;30799;49.060;9.312;2022-09-27T17:41:23;19.70;57.30
45060;DHT22;30799;49.060;9.312;2022-09-27T17:43:58;20.00;58.30
45060;DHT22;30799;49.060;9.312;2022-09-27T17:46:33;20.30;59.40
45060;DHT22;30799;49.060;9.312;2022-09-27T17:49:00;20.50;60.00
45060;DHT22;30799;49.060;9.312;2022-09-27T17:51:47;20.60;60.50
45060;DHT22;30799;49.060;9.312;2022-09-27T17:54:14;20.70;60.20
45060;DHT22;30799;49.060;9.312;2022-09-27T17:56:42;20.70;60.10
45060;DHT22;30799;49.060;9.312;2022-09-27T17:59:10;20.70;59.90
45060;DHT22;30799;49.060;9.312;2022-09-27T18:01:37;20.80;59.80
45060;DHT22;30799;49.060;9.312;2022-09-27T18:04:06;20.80;59.80
45060;DHT22;30799;49.060;9.312;2022-09-27T18:06:37;20.80;60.00
45060;DHT22;30799;49.060;9.312;2022-09-27T18:09:13;20.80;60.00
45060;DHT22;30799;49.060;9.312;2022-09-27T18:11:40;20.90;60.10
45060;DHT22;30799;49.060;9.312;2022-09-27T18:14:07;20.90;60.10
45060;DHT22;30799;49.060;9.312;2022-09-27T18:16:37;20.90;60.30
45060;DHT22;30799;49.060;9.312;2022-09-27T18:19:06;20.90;60.50
45060;DHT22;30799;49.060;9.312;2022-09-27T18:21:33;20.90;60.60
45060;DHT22;30799;49.060;9.312;2022-09-27T18:24:01;20.90;60.80